createdAt,value
2019-05-13T00:00:50.864Z,69.50
2019-05-13T00:03:18.195Z,69.70
2019-05-13T00:05:45.539Z,69.80
2019-05-13T00:08:13.954Z,69.90
2019-05-13T00:10:43.526Z,70.00
2019-05-13T00:13:10.854Z,70.90
2019-05-13T00:15:38.190Z,70.40
2019-05-13T00:18:05.543Z,70.40
2019-05-13T00:20:33.824Z,70.60
2019-05-13T00:23:03.630Z,70.70
2019-05-13T00:25:30.625Z,70.90
2019-05-13T00:27:58.052Z,71.20
2019-05-13T00:30:25.394Z,71.50
2019-05-13T00:32:54.601Z,71.50
2019-05-13T00:35:23.324Z,71.60
2019-05-13T00:37:50.725Z,71.80
2019-05-13T00:40:18.055Z,72.00
2019-05-13T00:42:45.383Z,72.20
2019-05-13T00:45:14.505Z,72.40
2019-05-13T00:47:43.614Z,72.60
2019-05-13T00:50:13.919Z,72.70
2019-05-13T00:52:40.832Z,72.70
2019-05-13T00:55:09.981Z,72.90
2019-05-13T00:57:37.319Z,73.10
2019-05-13T01:00:05.108Z,73.40
2019-05-13T01:02:33.822Z,73.70
2019-05-13T01:05:04.144Z,73.90
2019-05-13T01:07:31.032Z,74.20
2019-05-13T01:09:58.366Z,74.20
2019-05-13T01:12:25.670Z,74.40
2019-05-13T01:14:53.413Z,74.30
2019-05-13T01:17:20.910Z,74.50
2019-05-13T01:19:50.076Z,74.80
2019-05-13T01:22:17.330Z,74.90
2019-05-13T01:24:44.672Z,75.10
2019-05-13T01:27:13.922Z,75.40
2019-05-13T01:29:43.393Z,75.50
2019-05-13T01:32:10.392Z,75.80
2019-05-13T01:34:37.716Z,76.10
2019-05-13T01:37:05.055Z,76.00
2019-05-13T01:39:34.656Z,76.00
2019-05-13T01:42:03.721Z,76.00
2019-05-13T01:44:30.706Z,76.10
2019-05-13T01:46:57.936Z,76.50
2019-05-13T01:49:25.294Z,76.90
2019-05-13T01:51:54.209Z,77.30
2019-05-13T01:54:21.707Z,77.60
2019-05-13T01:56:49.065Z,77.90
2019-05-13T01:59:16.452Z,78.10
2019-05-13T02:01:44.300Z,78.20
2019-05-13T02:04:14.037Z,78.50
2019-05-13T02:06:40.940Z,78.70
2019-05-13T02:09:08.326Z,78.80
2019-05-13T02:11:35.628Z,79.00
2019-05-13T02:14:05.590Z,79.10
2019-05-13T02:16:33.765Z,79.50
2019-05-13T02:19:03.682Z,79.50
2019-05-13T02:21:30.665Z,79.70
2019-05-13T02:23:57.898Z,80.00
2019-05-13T02:26:25.186Z,80.20
2019-05-13T02:28:54.104Z,80.50
2019-05-13T02:31:31.924Z,80.80
2019-05-13T02:33:53.058Z,81.10
2019-05-13T02:36:22.879Z,81.40
2019-05-13T02:38:49.377Z,81.80
2019-05-13T02:41:16.708Z,82.20
2019-05-13T02:43:45.231Z,82.50
2019-05-13T02:46:13.140Z,82.80
2019-05-13T02:48:42.198Z,83.10
2019-05-13T02:51:12.425Z,83.20
2019-05-13T02:53:39.916Z,83.50
2019-05-13T02:56:08.208Z,83.70
2019-05-13T02:58:35.548Z,83.80
2019-05-13T03:01:03.575Z,84.10
2019-05-13T03:03:32.771Z,84.40
2019-05-13T03:06:02.978Z,84.60
2019-05-13T03:08:41.165Z,84.90
2019-05-13T03:10:58.901Z,85.10
2019-05-13T03:13:26.237Z,85.50
2019-05-13T03:16:13.187Z,85.80
2019-05-13T03:18:43.224Z,86.00
2019-05-13T03:21:12.427Z,86.20
2019-05-13T03:23:38.268Z,86.50
2019-05-13T03:26:05.709Z,86.60
2019-05-13T03:28:33.800Z,86.90
2019-05-13T03:31:06.786Z,87.20
2019-05-13T03:33:35.853Z,87.60
2019-05-13T03:36:05.600Z,88.10
2019-05-13T03:38:32.634Z,88.40
2019-05-13T03:41:03.315Z,88.90
2019-05-13T03:43:32.594Z,89.30
2019-05-13T03:46:03.406Z,89.60
2019-05-13T03:48:33.699Z,89.80
2019-05-13T03:51:02.676Z,90.10
2019-05-13T03:53:32.610Z,90.30
2019-05-13T03:56:02.455Z,90.50
2019-05-13T03:58:32.403Z,90.70
2019-05-13T04:01:02.473Z,91.00
2019-05-13T04:03:28.394Z,91.20
2019-05-13T04:05:55.703Z,91.30
2019-05-13T04:08:23.227Z,91.50
2019-05-13T04:10:52.504Z,91.60
2019-05-13T04:13:22.985Z,91.70
2019-05-13T04:15:48.983Z,91.80
2019-05-13T04:18:16.374Z,91.90
2019-05-13T04:20:43.731Z,91.90
2019-05-13T04:23:12.885Z,92.10
2019-05-13T04:25:44.442Z,92.20
2019-05-13T04:28:13.069Z,92.20
2019-05-13T04:30:39.199Z,92.30
2019-05-13T04:33:06.614Z,92.30
2019-05-13T04:35:34.017Z,92.40
2019-05-13T04:38:03.514Z,92.30
2019-05-13T04:40:33.227Z,92.30
2019-05-13T04:43:02.877Z,92.00
2019-05-13T04:45:33.068Z,91.70
2019-05-13T04:47:59.054Z,91.30
2019-05-13T04:50:26.584Z,91.00
2019-05-13T04:52:53.904Z,90.70
2019-05-13T04:55:22.859Z,90.40
2019-05-13T04:57:53.195Z,90.10
2019-05-13T05:00:49.919Z,89.60
2019-05-13T05:03:33.029Z,88.80
2019-05-13T05:06:22.822Z,88.00
2019-05-13T05:10:13.243Z,87.50
2019-05-13T05:12:45.296Z,87.10
2019-05-13T05:16:07.188Z,86.80
2019-05-13T05:19:23.827Z,86.20
2019-05-13T05:22:18.565Z,85.30
2019-05-13T05:25:01.825Z,84.40
2019-05-13T05:27:45.545Z,84.00
2019-05-13T05:30:51.826Z,83.70
2019-05-13T05:33:51.701Z,83.30
2019-05-13T05:36:55.616Z,82.80
2019-05-13T05:39:24.092Z,82.10
2019-05-13T05:41:53.869Z,81.70
2019-05-13T05:44:23.251Z,81.20
2019-05-13T05:46:53.262Z,81.00
2019-05-13T05:49:23.483Z,80.60
2019-05-13T05:51:52.784Z,80.30
2019-05-13T05:54:22.043Z,80.00
2019-05-13T05:56:52.417Z,79.60
2019-05-13T05:59:21.722Z,79.40
2019-05-13T06:01:52.631Z,79.20
2019-05-13T06:04:21.970Z,78.90
2019-05-13T06:06:52.035Z,78.40
2019-05-13T06:09:21.314Z,77.80
2019-05-13T06:11:48.539Z,77.40
2019-05-13T06:14:15.946Z,77.20
2019-05-13T06:16:43.461Z,76.50
2019-05-13T06:19:12.078Z,76.20
2019-05-13T06:21:41.981Z,75.60
2019-05-13T06:24:11.516Z,74.90
2019-05-13T06:26:38.402Z,74.30
2019-05-13T06:29:05.733Z,73.90
2019-05-13T06:31:33.063Z,73.20
2019-05-13T06:34:02.070Z,72.50
2019-05-13T06:36:31.686Z,72.50
2019-05-13T06:38:59.052Z,71.30
2019-05-13T06:41:26.477Z,70.90
2019-05-13T06:43:53.933Z,70.30
2019-05-13T06:46:21.964Z,70.00
2019-05-13T06:48:51.926Z,69.60
2019-05-13T06:51:18.745Z,69.30
2019-05-13T06:53:46.115Z,69.10
2019-05-13T06:56:13.571Z,68.70
2019-05-13T06:58:41.637Z,68.60
2019-05-13T07:01:11.559Z,68.50
2019-05-13T07:03:38.568Z,68.30
2019-05-13T07:06:05.881Z,68.00
2019-05-13T07:08:33.134Z,67.80
2019-05-13T07:11:17.163Z,67.90
2019-05-13T07:13:32.090Z,67.50
2019-05-13T07:16:01.254Z,67.20
2019-05-13T07:18:28.235Z,67.10
2019-05-13T07:20:55.567Z,66.70
2019-05-13T07:23:23.002Z,66.90
2019-05-13T07:25:52.505Z,66.80
2019-05-13T07:28:21.887Z,66.30
2019-05-13T07:30:48.886Z,66.30
2019-05-13T07:33:16.257Z,66.20
2019-05-13T07:35:45.617Z,66.20
2019-05-13T07:38:13.288Z,66.00
2019-05-13T07:40:41.759Z,66.70
2019-05-13T07:43:09.241Z,65.90
2019-05-13T07:45:36.473Z,65.70
2019-05-13T07:48:18.354Z,65.60
2019-05-13T07:50:33.436Z,65.30
2019-05-13T07:53:02.270Z,65.30
2019-05-13T07:55:31.617Z,65.30
2019-05-13T07:57:59.132Z,65.60
2019-05-13T08:00:26.464Z,65.00
2019-05-13T08:02:53.830Z,64.60
2019-05-13T08:05:22.354Z,64.10
2019-05-13T08:07:51.506Z,63.70
2019-05-13T08:10:19.062Z,63.60
2019-05-13T08:12:46.348Z,63.80
2019-05-13T08:15:16.164Z,63.20
2019-05-13T08:17:47.298Z,63.00
2019-05-13T08:20:12.960Z,62.40
2019-05-13T08:22:42.470Z,61.40
2019-05-13T08:25:12.374Z,60.90
2019-05-13T08:27:38.949Z,60.40
2019-05-13T08:30:07.378Z,59.80
2019-05-13T08:32:34.696Z,59.40
2019-05-13T08:35:08.736Z,59.30
2019-05-13T08:37:32.113Z,59.40
2019-05-13T08:40:01.577Z,58.70
2019-05-13T08:42:28.876Z,57.90
2019-05-13T08:44:56.216Z,57.60
2019-05-13T08:47:23.548Z,57.40
2019-05-13T08:49:52.013Z,57.40
2019-05-13T08:52:21.760Z,56.20
2019-05-13T08:54:48.724Z,55.70
2019-05-13T08:57:16.084Z,55.10
2019-05-13T08:59:43.430Z,55.40
2019-05-13T09:02:11.548Z,54.00
2019-05-13T09:04:39.129Z,53.30
2019-05-13T09:07:06.448Z,52.10
2019-05-13T09:09:33.680Z,50.80
2019-05-13T09:12:02.406Z,49.60
2019-05-13T09:14:32.447Z,48.40
2019-05-13T09:17:01.816Z,47.20
2019-05-13T09:19:28.864Z,44.10
2019-05-13T09:21:56.326Z,40.20
2019-05-13T09:24:32.772Z,35.90
2019-05-13T09:26:52.982Z,32.40
2019-05-13T09:29:22.592Z,30.60
2019-05-13T09:31:51.976Z,28.80
2019-05-13T09:34:19.056Z,27.20
2019-05-13T09:36:46.380Z,26.00
2019-05-13T09:39:13.725Z,25.10
2019-05-13T09:41:44.308Z,24.40
2019-05-13T09:44:12.391Z,23.10
2019-05-13T09:46:39.410Z,22.00
2019-05-13T09:49:16.116Z,21.70
2019-05-13T09:51:36.376Z,21.60
2019-05-13T09:54:03.688Z,21.00
2019-05-13T09:56:31.930Z,20.60
2019-05-13T09:59:01.767Z,20.20
2019-05-13T10:01:28.676Z,19.10
2019-05-13T10:03:58.214Z,18.70
2019-05-13T10:06:25.227Z,18.50
2019-05-13T10:08:52.841Z,17.80
2019-05-13T10:11:21.815Z,17.00
2019-05-13T10:13:51.558Z,16.80
2019-05-13T10:16:18.955Z,16.50
2019-05-13T10:18:46.296Z,16.60
2019-05-13T10:21:13.757Z,16.40
2019-05-13T10:23:42.134Z,16.10
2019-05-13T10:26:13.601Z,17.30
2019-05-13T10:28:42.384Z,16.70
2019-05-13T10:31:11.797Z,16.00
2019-05-13T10:33:38.107Z,16.10
2019-05-13T10:36:05.577Z,16.30
2019-05-13T10:38:33.020Z,16.30
2019-05-13T10:41:02.876Z,16.40
2019-05-13T10:43:32.005Z,16.30
2019-05-13T10:45:58.773Z,16.50
2019-05-13T10:48:26.220Z,16.60
2019-05-13T10:50:53.611Z,16.60
2019-05-13T10:53:22.033Z,16.40
2019-05-13T10:55:52.167Z,15.90
2019-05-13T10:58:22.978Z,16.00
2019-05-13T11:00:51.754Z,16.50
2019-05-13T11:03:22.728Z,16.80
2019-05-13T11:05:52.256Z,16.80
2019-05-13T11:08:18.491Z,16.90
2019-05-13T11:10:45.877Z,16.70
2019-05-13T11:13:13.421Z,16.40
2019-05-13T11:15:45.432Z,16.20
2019-05-13T11:18:11.758Z,16.50
2019-05-13T11:20:41.473Z,16.70
2019-05-13T11:23:08.598Z,16.70
2019-05-13T11:25:36.072Z,16.40
2019-05-13T11:28:03.724Z,17.00
2019-05-13T11:30:31.972Z,17.20
2019-05-13T11:33:01.686Z,17.50
2019-05-13T11:35:28.797Z,18.50
2019-05-13T11:37:56.208Z,19.40
2019-05-13T11:40:23.625Z,20.00
2019-05-13T11:42:52.695Z,21.10
2019-05-13T11:45:22.361Z,22.10
2019-05-13T11:47:51.980Z,22.80
2019-05-13T11:50:19.133Z,23.50
2019-05-13T11:52:46.477Z,24.20
2019-05-13T11:55:14.325Z,24.40
2019-05-13T11:57:44.342Z,23.90
2019-05-13T12:00:13.408Z,24.10
2019-05-13T12:02:42.589Z,25.10
2019-05-13T12:05:10.494Z,25.30
2019-05-13T12:07:37.845Z,25.30
2019-05-13T12:10:05.765Z,25.00
2019-05-13T12:12:34.497Z,25.60
2019-05-13T12:15:25.845Z,25.80
2019-05-13T12:17:33.921Z,25.50
2019-05-13T12:20:03.025Z,25.50
2019-05-13T12:22:29.952Z,26.00
2019-05-13T12:24:57.251Z,26.20
2019-05-13T12:27:24.669Z,27.00
2019-05-13T12:29:52.851Z,27.60
2019-05-13T12:32:22.449Z,27.80
2019-05-13T12:34:52.375Z,27.50
2019-05-13T12:37:21.905Z,27.50
2019-05-13T12:39:48.330Z,27.10
2019-05-13T12:42:16.124Z,26.40
2019-05-13T12:45:00.301Z,25.90
2019-05-13T12:47:12.871Z,25.90
2019-05-13T12:49:43.732Z,25.80
2019-05-13T12:52:12.783Z,24.90
2019-05-13T12:54:38.757Z,25.60
2019-05-13T12:57:11.820Z,26.00
2019-05-13T12:59:35.321Z,25.70
2019-05-13T13:02:03.435Z,25.50
2019-05-13T13:04:33.497Z,26.00
2019-05-13T13:07:00.235Z,26.70
2019-05-13T13:09:27.563Z,26.80
2019-05-13T13:11:54.795Z,26.90
2019-05-13T13:14:22.184Z,27.40
2019-05-13T13:16:53.625Z,27.50
2019-05-13T13:19:18.718Z,27.50
2019-05-13T13:21:45.981Z,27.50
2019-05-13T13:24:13.301Z,27.40
2019-05-13T13:26:42.829Z,27.10
2019-05-13T13:29:09.648Z,26.70
2019-05-13T13:31:37.226Z,27.00
2019-05-13T13:34:12.203Z,27.10
2019-05-13T13:36:33.990Z,26.80
2019-05-13T13:39:03.801Z,27.40
2019-05-13T13:41:32.789Z,27.00
2019-05-13T13:44:04.716Z,27.00
2019-05-13T13:46:38.334Z,26.90
2019-05-13T13:48:58.110Z,26.40
2019-05-13T13:51:26.824Z,26.30
2019-05-13T13:53:56.600Z,26.20
2019-05-13T13:56:25.447Z,26.20
2019-05-13T13:58:53.113Z,26.30
2019-05-13T14:01:26.641Z,25.90
2019-05-13T14:03:49.629Z,26.00
2019-05-13T14:07:09.453Z,25.60
2019-05-13T14:08:49.064Z,25.70
2019-05-13T14:11:16.387Z,25.80
2019-05-13T14:13:43.741Z,25.40
2019-05-13T14:16:24.924Z,25.20
2019-05-13T14:18:41.903Z,24.90
2019-05-13T14:21:09.575Z,24.80
2019-05-13T14:23:37.986Z,24.50
2019-05-13T14:26:05.519Z,24.70
2019-05-13T14:28:33.386Z,24.70
2019-05-13T14:31:01.853Z,24.90
2019-05-13T14:33:32.553Z,24.80
2019-05-13T14:36:01.322Z,24.50
2019-05-13T14:38:27.877Z,24.40
2019-05-13T14:40:55.260Z,24.90
2019-05-13T14:43:23.083Z,24.90
2019-05-13T14:45:52.059Z,24.60
2019-05-13T14:48:22.069Z,24.70
2019-05-13T14:50:48.917Z,25.00
2019-05-13T14:53:16.397Z,24.70
2019-05-13T14:55:44.145Z,25.20
2019-05-13T14:58:11.828Z,24.50
2019-05-13T15:00:41.969Z,24.40
2019-05-13T15:03:08.742Z,24.80
2019-05-13T15:05:36.104Z,24.80
2019-05-13T15:08:03.716Z,24.90
2019-05-13T15:10:31.564Z,24.90
2019-05-13T15:12:59.065Z,24.90
2019-05-13T15:15:26.287Z,25.00
2019-05-13T15:17:53.656Z,25.00
2019-05-13T15:20:21.793Z,24.80
2019-05-13T15:22:51.681Z,25.10
2019-05-13T15:25:18.533Z,25.10
2019-05-13T15:27:45.952Z,25.10
2019-05-13T15:30:17.857Z,25.10
2019-05-13T15:32:42.737Z,25.10
2019-05-13T15:35:13.212Z,25.00
2019-05-13T15:37:41.224Z,25.00
2019-05-13T15:40:08.838Z,25.00
2019-05-13T15:42:36.275Z,25.10
2019-05-13T15:45:04.089Z,24.80
2019-05-13T15:47:31.453Z,25.30
2019-05-13T15:50:02.193Z,25.20
2019-05-13T15:52:28.175Z,25.10
2019-05-13T15:54:55.510Z,24.90
2019-05-13T15:57:23.646Z,24.80
2019-05-13T15:59:51.824Z,24.90
2019-05-13T16:02:19.420Z,25.10
2019-05-13T16:04:53.084Z,25.20
2019-05-13T16:07:16.054Z,25.30
2019-05-13T16:09:43.270Z,25.70
2019-05-13T16:12:12.153Z,25.90
2019-05-13T16:14:39.828Z,25.70
2019-05-13T16:17:08.857Z,25.60
2019-05-13T16:19:36.204Z,25.80
2019-05-13T16:22:03.521Z,26.40
2019-05-13T16:24:32.133Z,26.70
2019-05-13T16:27:02.198Z,26.50
2019-05-13T16:29:31.409Z,26.50
2019-05-13T16:31:58.278Z,26.70
2019-05-13T16:34:25.978Z,26.90
2019-05-13T16:36:53.279Z,27.00
2019-05-13T16:39:21.275Z,26.90
2019-05-13T16:41:48.948Z,26.70
2019-05-13T16:44:16.152Z,26.60
2019-05-13T16:46:43.566Z,26.80
2019-05-13T16:49:12.153Z,27.70
2019-05-13T16:51:39.692Z,27.20
2019-05-13T16:54:07.039Z,27.50
2019-05-13T16:56:34.402Z,27.40
2019-05-13T16:59:01.767Z,27.30
2019-05-13T17:01:29.167Z,27.60
2019-05-13T17:03:56.433Z,28.10
2019-05-13T17:06:23.783Z,28.20
2019-05-13T17:08:51.660Z,28.00
2019-05-13T17:11:19.143Z,27.80
2019-05-13T17:13:46.501Z,27.90
2019-05-13T17:16:13.875Z,28.00
2019-05-13T17:18:41.852Z,28.20
2019-05-13T17:21:09.381Z,28.40
2019-05-13T17:23:37.140Z,28.50
2019-05-13T17:26:04.759Z,28.40
2019-05-13T17:28:34.182Z,28.50
2019-05-13T17:31:02.175Z,28.40
2019-05-13T17:33:31.823Z,28.60
2019-05-13T17:36:01.623Z,28.40
2019-05-13T17:38:28.536Z,28.40
2019-05-13T17:40:55.985Z,28.40
2019-05-13T17:43:23.405Z,28.60
2019-05-13T17:45:52.353Z,28.70
2019-05-13T17:48:28.423Z,28.70
2019-05-13T17:50:49.156Z,28.80
2019-05-13T17:53:16.409Z,29.10
2019-05-13T17:55:43.738Z,29.30
2019-05-13T17:58:11.715Z,29.40
2019-05-13T18:00:41.375Z,29.50
2019-05-13T18:03:08.337Z,29.50
2019-05-13T18:05:35.803Z,29.50
2019-05-13T18:08:03.919Z,29.50
2019-05-13T18:10:31.873Z,29.60
2019-05-13T18:13:01.535Z,29.40
2019-05-13T18:15:28.663Z,29.40
2019-05-13T18:17:56.049Z,29.40
2019-05-13T18:20:23.414Z,29.30
2019-05-13T18:22:52.360Z,29.50
2019-05-13T18:25:22.153Z,29.70
2019-05-13T18:27:49.514Z,29.90
2019-05-13T18:30:17.007Z,30.00
2019-05-13T18:32:44.345Z,30.00
2019-05-13T18:35:12.334Z,30.20
2019-05-13T18:37:41.810Z,30.20
2019-05-13T18:40:11.503Z,30.40
2019-05-13T18:42:38.961Z,30.70
2019-05-13T18:45:06.716Z,30.50
2019-05-13T18:47:34.132Z,30.40
2019-05-13T18:50:02.267Z,30.50
2019-05-13T18:52:31.284Z,30.70
2019-05-13T18:54:59.071Z,30.70
2019-05-13T18:57:26.625Z,30.80
2019-05-13T18:59:54.111Z,31.10
2019-05-13T19:02:21.584Z,31.30
2019-05-13T19:04:48.929Z,31.50
2019-05-13T19:07:16.228Z,31.70
2019-05-13T19:09:43.709Z,31.90
2019-05-13T19:12:11.611Z,32.10
2019-05-13T19:14:41.179Z,32.20
2019-05-13T19:17:08.563Z,32.50
2019-05-13T19:19:35.973Z,32.50
2019-05-13T19:22:03.484Z,32.70
2019-05-13T19:24:31.267Z,32.80
2019-05-13T19:26:58.846Z,32.80
2019-05-13T19:29:26.350Z,32.90
2019-05-13T19:31:53.853Z,33.00
2019-05-13T19:34:21.581Z,33.10
2019-05-13T19:36:49.019Z,33.30
2019-05-13T19:39:16.435Z,33.50
2019-05-13T19:41:43.924Z,33.70
2019-05-13T19:44:11.331Z,34.00
2019-05-13T19:46:38.721Z,34.20
2019-05-13T19:49:06.139Z,34.30
2019-05-13T19:51:33.613Z,34.40
2019-05-13T19:54:01.325Z,34.70
2019-05-13T19:56:28.895Z,34.80
2019-05-13T19:58:56.271Z,35.00
2019-05-13T20:01:23.651Z,35.30
2019-05-13T20:03:51.559Z,35.50
2019-05-13T20:06:21.309Z,35.90
2019-05-13T20:08:48.363Z,36.00
2019-05-13T20:11:15.703Z,36.20
2019-05-13T20:13:43.113Z,36.30
2019-05-13T20:16:11.728Z,36.60
2019-05-13T20:18:41.457Z,37.20
2019-05-13T20:21:11.181Z,37.40
2019-05-13T20:23:38.068Z,37.90
2019-05-13T20:26:05.491Z,38.20
2019-05-13T20:28:32.869Z,38.20
2019-05-13T20:31:01.908Z,38.40
2019-05-13T20:33:31.952Z,38.50
2019-05-13T20:36:01.382Z,38.50
2019-05-13T20:38:28.246Z,38.60
2019-05-13T20:40:55.650Z,38.60
2019-05-13T20:43:23.020Z,38.70
2019-05-13T20:45:51.761Z,38.80
2019-05-13T20:48:21.107Z,38.90
2019-05-13T20:50:48.710Z,39.10
2019-05-13T20:53:15.998Z,39.40
2019-05-13T20:55:43.444Z,39.60
2019-05-13T20:58:12.820Z,39.80
2019-05-13T21:00:42.026Z,40.00
2019-05-13T21:03:11.565Z,40.30
2019-05-13T21:05:41.320Z,40.70
2019-05-13T21:08:08.098Z,40.90
2019-05-13T21:10:35.541Z,41.10
2019-05-13T21:13:02.924Z,41.40
2019-05-13T21:15:31.746Z,41.80
2019-05-13T21:17:59.312Z,42.10
2019-05-13T21:20:26.669Z,42.60
2019-05-13T21:22:54.033Z,42.70
2019-05-13T21:25:21.409Z,42.90
2019-05-13T21:27:48.809Z,43.20
2019-05-13T21:30:16.630Z,43.60
2019-05-13T21:32:43.980Z,43.90
2019-05-13T21:35:12.017Z,44.10
2019-05-13T21:37:39.588Z,44.60
2019-05-13T21:40:07.342Z,44.90
2019-05-13T21:42:34.825Z,45.20
2019-05-13T21:45:02.234Z,46.20
2019-05-13T21:47:31.203Z,45.80
2019-05-13T21:49:58.667Z,46.00
2019-05-13T21:52:26.170Z,46.20
2019-05-13T21:54:53.581Z,46.50
2019-05-13T21:57:21.451Z,46.90
2019-05-13T21:59:48.796Z,47.10
2019-05-13T22:02:16.161Z,47.40
2019-05-13T22:04:43.400Z,47.70
2019-05-13T22:07:12.214Z,48.10
2019-05-13T22:09:41.875Z,48.30
2019-05-13T22:12:09.064Z,48.50
2019-05-13T22:14:36.481Z,48.70
2019-05-13T22:17:03.943Z,48.80
2019-05-13T22:19:31.713Z,48.90
2019-05-13T22:21:59.493Z,48.90
2019-05-13T22:24:26.851Z,49.30
2019-05-13T22:26:54.287Z,50.30
2019-05-13T22:29:23.242Z,50.20
2019-05-13T22:31:51.184Z,50.40
2019-05-13T22:34:18.657Z,50.60
2019-05-13T22:36:45.968Z,50.70
2019-05-13T22:39:13.327Z,50.80
2019-05-13T22:41:42.081Z,51.00
2019-05-13T22:44:11.657Z,51.00
2019-05-13T22:46:41.227Z,51.20
2019-05-13T22:49:08.145Z,51.50
2019-05-13T22:51:35.497Z,51.80
2019-05-13T22:54:02.885Z,51.90
2019-05-13T22:56:31.930Z,52.20
2019-05-13T22:58:59.481Z,52.30
2019-05-13T23:01:26.866Z,52.60
2019-05-13T23:03:54.223Z,52.80
2019-05-13T23:06:21.741Z,53.00
2019-05-13T23:08:49.133Z,53.30
2019-05-13T23:11:16.484Z,53.60
2019-05-13T23:13:43.795Z,53.80
2019-05-13T23:16:11.569Z,54.00
2019-05-13T23:18:38.963Z,54.10
2019-05-13T23:21:06.361Z,54.30
2019-05-13T23:23:33.711Z,54.60
2019-05-13T23:26:01.057Z,54.70
2019-05-13T23:28:28.413Z,55.00
2019-05-13T23:30:55.799Z,55.40
2019-05-13T23:33:23.171Z,55.50
2019-05-13T23:35:50.408Z,55.70
2019-05-13T23:38:17.781Z,56.10
2019-05-13T23:40:45.115Z,56.40
2019-05-13T23:43:12.475Z,56.60
2019-05-13T23:45:41.561Z,56.90
2019-05-13T23:48:09.023Z,57.10
2019-05-13T23:50:36.466Z,57.30
2019-05-13T23:53:03.820Z,57.40
2019-05-13T23:55:32.116Z,57.50
2019-05-13T23:58:01.662Z,57.80
